createdAt,value
2022-08-18T00:01:06.611Z,15.55
2022-08-18T00:03:56.673Z,15.90
2022-08-18T00:06:21.155Z,15.35
2022-08-18T00:08:47.960Z,15.18
2022-08-18T00:11:16.157Z,15.52
2022-08-18T00:13:42.999Z,15.75
2022-08-18T00:16:09.918Z,15.00
2022-08-18T00:18:36.734Z,16.67
2022-08-18T00:21:03.550Z,16.02
2022-08-18T00:23:32.689Z,16.33
2022-08-18T00:25:59.555Z,16.52
2022-08-18T00:28:26.614Z,16.73
2022-08-18T00:30:54.063Z,16.80
2022-08-18T00:33:21.797Z,15.77
2022-08-18T00:35:49.383Z,16.58
2022-08-18T00:38:24.577Z,16.98
2022-08-18T00:40:55.630Z,15.57
2022-08-18T00:43:32.134Z,15.52
2022-08-18T00:45:59.400Z,15.63
2022-08-18T00:48:26.568Z,15.27
2022-08-18T00:51:00.269Z,15.18
2022-08-18T00:53:29.538Z,16.15
2022-08-18T00:56:00.583Z,15.27
2022-08-18T00:58:40.001Z,15.43
2022-08-18T01:01:09.605Z,14.93
2022-08-18T01:03:40.133Z,16.48
2022-08-18T01:06:09.899Z,15.35
2022-08-18T01:08:38.826Z,15.27
2022-08-18T01:11:07.875Z,16.08
2022-08-18T01:13:38.317Z,16.60
2022-08-18T01:16:25.595Z,18.02
2022-08-18T01:19:11.753Z,16.83
2022-08-18T01:21:52.348Z,17.77
2022-08-18T01:24:52.485Z,16.85
2022-08-18T01:27:19.416Z,17.60
2022-08-18T01:29:48.528Z,17.65
2022-08-18T01:32:22.512Z,17.30
2022-08-18T01:34:51.858Z,18.20
2022-08-18T01:37:21.866Z,17.63
2022-08-18T01:41:24.150Z,20.42
2022-08-18T01:42:37.452Z,18.90
2022-08-18T01:45:07.551Z,18.52
2022-08-18T01:47:47.846Z,19.42
2022-08-18T01:50:16.955Z,19.05
2022-08-18T01:52:44.123Z,17.30
2022-08-18T01:55:10.900Z,17.02
2022-08-18T01:57:45.232Z,19.17
2022-08-18T02:00:14.924Z,18.02
2022-08-18T02:02:42.364Z,18.77
2022-08-18T02:05:18.377Z,18.73
2022-08-18T02:07:45.657Z,18.67
2022-08-18T02:10:16.602Z,17.55
2022-08-18T02:12:43.915Z,17.65
2022-08-18T02:15:12.099Z,18.50
2022-08-18T02:17:41.641Z,19.13
2022-08-18T02:20:10.305Z,18.30
2022-08-18T02:22:37.450Z,17.80
2022-08-18T02:25:06.781Z,19.88
2022-08-18T02:27:34.287Z,17.75
2022-08-18T02:30:02.371Z,17.95
2022-08-18T02:32:29.442Z,18.15
2022-08-18T02:34:56.408Z,18.23
2022-08-18T02:37:23.363Z,18.27
2022-08-18T02:39:50.219Z,18.58
2022-08-18T02:42:17.302Z,18.40
2022-08-18T02:44:44.668Z,18.15
2022-08-18T02:47:11.697Z,19.42
2022-08-18T02:49:38.502Z,19.98
2022-08-18T02:52:06.192Z,19.17
2022-08-18T02:54:33.103Z,19.92
2022-08-18T02:56:59.815Z,19.42
2022-08-18T02:59:27.906Z,20.60
2022-08-18T03:01:58.714Z,20.13
2022-08-18T03:04:30.217Z,20.17
2022-08-18T03:07:03.947Z,19.80
2022-08-18T03:09:32.123Z,21.02
2022-08-18T03:11:59.211Z,19.95
2022-08-18T03:14:26.595Z,20.75
2022-08-18T03:16:54.880Z,22.15
2022-08-18T03:19:31.921Z,20.55
2022-08-18T03:22:02.710Z,19.52
2022-08-18T03:24:32.350Z,19.42
2022-08-18T03:27:01.719Z,20.10
2022-08-18T03:29:32.789Z,17.70
2022-08-18T03:32:02.233Z,16.15
2022-08-18T03:34:30.028Z,13.57
2022-08-18T03:36:56.885Z,13.55
2022-08-18T03:39:25.055Z,12.23
2022-08-18T03:41:59.472Z,11.25
2022-08-18T03:44:33.890Z,9.93
2022-08-18T03:47:03.944Z,10.00
2022-08-18T03:49:33.733Z,9.70
2022-08-18T03:52:01.672Z,8.73
2022-08-18T03:54:29.894Z,8.60
2022-08-18T03:56:56.853Z,8.23
2022-08-18T03:59:27.686Z,7.18
2022-08-18T04:01:55.350Z,7.95
2022-08-18T04:04:28.216Z,7.03
2022-08-18T04:06:58.820Z,6.95
2022-08-18T04:09:28.961Z,6.68
2022-08-18T04:11:57.118Z,6.20
2022-08-18T04:14:28.999Z,5.78
2022-08-18T04:16:57.115Z,5.90
2022-08-18T04:19:27.699Z,7.25
2022-08-18T04:21:57.701Z,7.40
2022-08-18T04:24:26.187Z,6.68
2022-08-18T04:26:53.564Z,6.50
2022-08-18T04:29:23.744Z,5.45
2022-08-18T04:31:51.642Z,6.30
2022-08-18T04:34:20.725Z,5.80
2022-08-18T04:36:48.271Z,6.10
2022-08-18T04:39:15.062Z,5.38
2022-08-18T04:41:44.124Z,5.32
2022-08-18T04:44:12.402Z,5.50
2022-08-18T04:46:41.896Z,5.28
2022-08-18T04:49:10.685Z,5.13
2022-08-18T04:52:36.483Z,5.43
2022-08-18T04:54:28.854Z,5.18
2022-08-18T04:56:55.885Z,5.03
2022-08-18T04:59:23.156Z,5.47
2022-08-18T05:01:49.908Z,4.82
2022-08-18T05:04:17.865Z,4.50
2022-08-18T05:06:46.280Z,6.13
2022-08-18T05:09:16.661Z,4.55
2022-08-18T05:11:50.925Z,5.15
2022-08-18T05:14:18.453Z,5.75
2022-08-18T05:16:48.545Z,5.03
2022-08-18T05:19:26.116Z,4.93
2022-08-18T05:21:59.926Z,4.90
2022-08-18T05:24:33.700Z,4.50
2022-08-18T05:27:04.969Z,4.72
2022-08-18T05:29:41.412Z,4.20
2022-08-18T05:32:30.310Z,5.00
2022-08-18T05:35:04.679Z,4.60
2022-08-18T05:37:58.373Z,5.05
2022-08-18T05:40:26.011Z,4.55
2022-08-18T05:42:57.729Z,4.65
2022-08-18T05:45:25.227Z,4.55
2022-08-18T05:48:00.180Z,4.60
2022-08-18T05:50:31.476Z,4.53
2022-08-18T05:53:13.691Z,5.03
2022-08-18T05:56:08.068Z,4.72
2022-08-18T05:58:43.474Z,4.55
2022-08-18T06:01:25.647Z,4.13
2022-08-18T06:04:01.086Z,4.05
2022-08-18T06:06:31.713Z,3.90
2022-08-18T06:09:13.087Z,3.90
2022-08-18T06:11:40.051Z,4.20
2022-08-18T06:14:07.085Z,4.57
2022-08-18T06:17:02.670Z,4.45
2022-08-18T06:19:44.926Z,4.45
2022-08-18T06:22:52.269Z,4.00
2022-08-18T06:25:55.424Z,3.90
2022-08-18T06:28:22.427Z,3.97
2022-08-18T06:31:18.466Z,4.53
2022-08-18T06:34:30.823Z,3.65
2022-08-18T06:37:20.035Z,4.20
2022-08-18T06:39:50.085Z,4.00
2022-08-18T06:42:25.992Z,3.83
2022-08-18T06:44:59.188Z,3.83
2022-08-18T06:47:29.352Z,3.92
2022-08-18T06:50:08.270Z,4.00
2022-08-18T06:52:50.979Z,3.97
2022-08-18T06:55:30.993Z,3.72
2022-08-18T06:58:01.263Z,3.60
2022-08-18T07:00:34.688Z,3.50
2022-08-18T07:03:20.808Z,3.78
2022-08-18T07:06:07.922Z,3.25
2022-08-18T07:08:41.394Z,3.50
2022-08-18T07:11:13.778Z,3.20
2022-08-18T07:13:44.460Z,3.35
2022-08-18T07:16:57.030Z,3.28
2022-08-18T07:19:30.024Z,3.45
2022-08-18T07:22:05.440Z,3.03
2022-08-18T07:24:38.742Z,3.20
2022-08-18T07:27:16.000Z,2.92
2022-08-18T07:30:09.133Z,3.00
2022-08-18T07:33:09.549Z,3.10
2022-08-18T07:35:59.490Z,2.70
2022-08-18T07:38:43.273Z,2.67
2022-08-18T07:41:52.600Z,2.88
2022-08-18T07:44:23.651Z,2.90
2022-08-18T07:47:04.397Z,2.90
2022-08-18T07:49:37.020Z,2.50
2022-08-18T07:52:46.877Z,3.38
2022-08-18T07:55:37.918Z,2.67
2022-08-18T07:58:32.737Z,2.47
2022-08-18T08:01:00.305Z,2.97
2022-08-18T08:04:01.456Z,2.50
2022-08-18T08:06:37.234Z,3.08
2022-08-18T08:09:29.924Z,2.28
2022-08-18T08:12:01.853Z,2.70
2022-08-18T08:14:49.843Z,3.10
2022-08-18T08:17:25.444Z,2.53
2022-08-18T08:20:10.648Z,2.63
2022-08-18T08:23:05.213Z,2.58
2022-08-18T08:25:54.796Z,2.50
2022-08-18T08:28:41.779Z,2.58
2022-08-18T08:31:37.955Z,2.80
2022-08-18T08:34:25.696Z,3.10
2022-08-18T08:37:02.707Z,2.92
2022-08-18T08:39:37.694Z,2.45
2022-08-18T08:42:32.073Z,2.33
2022-08-18T08:45:07.288Z,2.35
2022-08-18T08:47:45.377Z,2.42
2022-08-18T08:50:22.276Z,2.70
2022-08-18T08:53:06.233Z,2.83
2022-08-18T08:55:37.875Z,2.50
2022-08-18T08:58:24.710Z,2.53
2022-08-18T09:00:52.693Z,2.75
2022-08-18T09:04:01.929Z,2.50
2022-08-18T09:06:48.429Z,2.40
2022-08-18T09:09:21.277Z,2.83
2022-08-18T09:12:03.386Z,2.50
2022-08-18T09:15:00.447Z,2.65
2022-08-18T09:17:50.755Z,2.50
2022-08-18T09:20:43.527Z,2.30
2022-08-18T09:23:21.507Z,2.60
2022-08-18T09:25:56.792Z,2.42
2022-08-18T09:28:56.430Z,2.92
2022-08-18T09:31:24.843Z,2.30
2022-08-18T09:34:10.915Z,2.70
2022-08-18T09:36:58.903Z,2.45
2022-08-18T09:39:57.878Z,2.88
2022-08-18T09:42:30.594Z,2.70
2022-08-18T09:45:02.188Z,2.47
2022-08-18T09:47:30.467Z,2.72
2022-08-18T09:50:26.906Z,2.53
2022-08-18T09:52:58.993Z,2.65
2022-08-18T09:55:29.225Z,2.60
2022-08-18T09:58:26.228Z,2.60
2022-08-18T10:01:39.880Z,2.70
2022-08-18T10:04:21.861Z,2.42
2022-08-18T10:07:16.006Z,2.42
2022-08-18T10:13:38.763Z,2.70
2022-08-18T10:17:15.934Z,2.75
2022-08-18T10:19:56.226Z,2.50
2022-08-18T10:22:43.701Z,2.30
2022-08-18T10:25:22.961Z,2.65
2022-08-18T10:27:56.863Z,2.45
2022-08-18T10:30:34.469Z,2.70
2022-08-18T10:33:17.858Z,2.53
2022-08-18T10:36:03.076Z,2.53
2022-08-18T10:38:47.848Z,2.40
2022-08-18T10:41:24.518Z,2.83
2022-08-18T10:43:55.921Z,2.33
2022-08-18T10:46:34.992Z,2.65
2022-08-18T10:49:21.597Z,2.70
2022-08-18T10:52:09.355Z,2.58
2022-08-18T10:55:10.535Z,2.70
2022-08-18T10:58:15.376Z,2.70
2022-08-18T11:01:20.262Z,2.42
2022-08-18T11:03:56.137Z,2.97
2022-08-18T11:06:27.124Z,2.63
2022-08-18T11:09:00.368Z,2.27
2022-08-18T11:11:43.025Z,2.60
2022-08-18T11:14:23.761Z,2.50
2022-08-18T11:16:59.737Z,2.50
2022-08-18T11:19:27.232Z,3.08
2022-08-18T11:21:54.196Z,2.40
2022-08-18T11:24:27.590Z,2.42
2022-08-18T11:27:03.425Z,2.70
2022-08-18T11:29:34.645Z,2.53
2022-08-18T11:32:26.280Z,2.60
2022-08-18T11:35:10.814Z,2.20
2022-08-18T11:37:52.079Z,2.83
2022-08-18T11:43:16.951Z,2.78
2022-08-18T11:45:52.815Z,2.50
2022-08-18T11:48:36.023Z,2.33
2022-08-18T11:51:22.725Z,2.30
2022-08-18T11:54:03.153Z,2.35
2022-08-18T11:56:36.031Z,3.40
2022-08-18T11:59:08.664Z,2.42
2022-08-18T12:01:41.912Z,2.63
2022-08-18T12:04:14.514Z,2.78
2022-08-18T12:06:59.505Z,4.05
2022-08-18T12:12:30.934Z,2.55
2022-08-18T12:15:24.676Z,2.50
2022-08-18T12:17:53.660Z,2.47
2022-08-18T12:20:22.011Z,2.20
2022-08-18T12:22:50.271Z,2.53
2022-08-18T12:28:11.191Z,2.70
2022-08-18T12:30:38.105Z,2.70
2022-08-18T12:33:12.099Z,2.60
2022-08-18T12:38:26.716Z,2.90
2022-08-18T12:40:53.554Z,2.55
2022-08-18T12:43:20.513Z,2.42
2022-08-18T12:45:47.792Z,2.58
2022-08-18T12:48:15.111Z,2.70
2022-08-18T12:50:54.181Z,2.28
2022-08-18T12:53:29.183Z,2.60
2022-08-18T12:56:19.919Z,2.85
2022-08-18T13:01:13.890Z,2.80
2022-08-18T13:04:11.029Z,2.90
2022-08-18T13:06:37.413Z,2.40
2022-08-18T13:09:16.671Z,2.70
2022-08-18T13:11:55.082Z,2.55
2022-08-18T13:14:22.560Z,2.78
2022-08-18T13:16:53.858Z,2.63
2022-08-18T13:19:21.769Z,2.30
2022-08-18T13:21:49.539Z,2.97
2022-08-18T13:24:16.696Z,2.90
2022-08-18T13:26:50.221Z,2.70
2022-08-18T13:29:19.427Z,2.22
2022-08-18T13:31:55.936Z,2.70
2022-08-18T13:34:29.761Z,2.70
2022-08-18T13:36:58.056Z,2.67
2022-08-18T13:39:34.080Z,2.50
2022-08-18T13:42:26.413Z,3.17
2022-08-18T13:44:53.230Z,2.92
2022-08-18T13:47:22.340Z,2.80
2022-08-18T13:49:57.858Z,2.58
2022-08-18T13:52:34.182Z,2.72
2022-08-18T13:55:08.278Z,2.70
2022-08-18T13:57:36.868Z,3.10
2022-08-18T14:00:12.227Z,2.88
2022-08-18T14:02:53.619Z,2.58
2022-08-18T14:05:21.489Z,2.70
2022-08-18T14:08:05.238Z,2.92
2022-08-18T14:10:32.951Z,2.30
2022-08-18T14:13:20.875Z,2.92
2022-08-18T14:15:53.537Z,2.60
2022-08-18T14:18:21.533Z,2.88
2022-08-18T14:21:15.694Z,2.42
2022-08-18T14:24:01.231Z,2.90
2022-08-18T14:26:47.085Z,2.58
2022-08-18T14:29:45.716Z,2.47
2022-08-18T14:32:07.228Z,3.00
2022-08-18T14:34:34.657Z,5.55
2022-08-18T14:37:03.252Z,20.67
2022-08-18T14:39:30.369Z,9.00
2022-08-18T14:41:58.592Z,8.10
2022-08-18T14:44:30.261Z,11.48
2022-08-18T14:46:59.604Z,15.45
2022-08-18T14:49:29.404Z,5.85
2022-08-18T14:52:01.119Z,9.82
2022-08-18T14:54:30.089Z,7.05
2022-08-18T14:56:59.940Z,9.93
2022-08-18T14:59:28.533Z,6.78
2022-08-18T15:01:55.962Z,3.80
2022-08-18T15:04:23.050Z,5.00
2022-08-18T15:06:56.307Z,5.28
2022-08-18T15:09:27.420Z,4.47
2022-08-18T15:11:56.252Z,2.60
2022-08-18T15:14:33.135Z,3.15
2022-08-18T15:17:02.999Z,2.90
2022-08-18T15:20:00.496Z,2.67
2022-08-18T15:22:44.640Z,2.90
2022-08-18T15:25:30.047Z,2.83
2022-08-18T15:27:58.157Z,2.78
2022-08-18T15:30:25.649Z,2.60
2022-08-18T15:32:54.546Z,2.90
2022-08-18T15:35:21.469Z,2.58
2022-08-18T15:37:54.104Z,2.92
2022-08-18T15:40:35.540Z,3.20
2022-08-18T15:43:10.105Z,2.57
2022-08-18T15:45:43.323Z,3.00
2022-08-18T15:48:20.276Z,2.90
2022-08-18T15:50:50.992Z,2.53
2022-08-18T15:53:21.444Z,3.47
2022-08-18T15:55:49.984Z,2.78
2022-08-18T15:58:18.220Z,2.22
2022-08-18T16:00:50.639Z,2.70
2022-08-18T16:03:20.613Z,2.47
2022-08-18T16:05:55.205Z,3.30
2022-08-18T16:08:25.495Z,2.47
2022-08-18T16:10:53.624Z,3.33
2022-08-18T16:13:21.321Z,3.50
2022-08-18T16:15:49.957Z,2.88
2022-08-18T16:18:18.778Z,2.58
2022-08-18T16:20:45.683Z,2.78
2022-08-18T16:23:13.222Z,2.90
2022-08-18T16:25:41.780Z,3.00
2022-08-18T16:28:09.542Z,3.13
2022-08-18T16:30:36.598Z,3.35
2022-08-18T16:33:06.559Z,2.85
2022-08-18T16:35:34.894Z,2.80
2022-08-18T16:38:08.676Z,2.78
2022-08-18T16:40:36.893Z,2.85
2022-08-18T16:43:05.967Z,3.00
2022-08-18T16:45:35.936Z,2.80
2022-08-18T16:48:03.007Z,2.83
2022-08-18T16:50:30.172Z,3.08
2022-08-18T16:52:57.696Z,3.03
2022-08-18T16:55:24.697Z,2.90
2022-08-18T16:58:14.877Z,3.13
2022-08-18T17:01:01.889Z,3.20
2022-08-18T17:03:47.758Z,3.13
2022-08-18T17:06:18.039Z,2.80
2022-08-18T17:08:46.292Z,2.78
2022-08-18T17:11:17.756Z,2.78
2022-08-18T17:13:46.242Z,3.45
2022-08-18T17:16:13.739Z,3.10
2022-08-18T17:18:41.800Z,4.70
2022-08-18T17:21:11.799Z,2.67
2022-08-18T17:23:39.592Z,2.88
2022-08-18T17:26:17.503Z,3.00
2022-08-18T17:28:52.653Z,3.05
2022-08-18T17:31:22.680Z,3.05
2022-08-18T17:33:50.211Z,3.30
2022-08-18T17:36:30.523Z,3.30
2022-08-18T17:39:01.403Z,2.63
2022-08-18T17:41:28.618Z,3.13
2022-08-18T17:43:57.491Z,3.20
2022-08-18T17:46:32.299Z,3.03
2022-08-18T17:49:06.343Z,3.33
2022-08-18T17:51:44.414Z,3.17
2022-08-18T17:54:33.654Z,3.10
2022-08-18T17:57:13.512Z,3.25
2022-08-18T18:00:02.535Z,3.10
2022-08-18T18:02:41.016Z,3.53
2022-08-18T18:05:11.879Z,3.05
2022-08-18T18:07:52.922Z,4.25
2022-08-18T18:11:04.348Z,3.28
2022-08-18T18:13:34.984Z,3.33
2022-08-18T18:16:21.533Z,2.92
2022-08-18T18:18:59.988Z,3.35
2022-08-18T18:21:53.451Z,3.10
2022-08-18T18:24:24.200Z,3.20
2022-08-18T18:26:52.145Z,3.20
2022-08-18T18:29:35.660Z,3.28
2022-08-18T18:32:23.923Z,2.90
2022-08-18T18:35:07.430Z,3.85
2022-08-18T18:37:44.132Z,3.72
2022-08-18T18:40:29.388Z,3.42
2022-08-18T18:43:16.649Z,3.90
2022-08-18T18:46:05.089Z,3.33
2022-08-18T18:48:59.233Z,3.80
2022-08-18T18:51:36.032Z,3.00
2022-08-18T18:54:09.102Z,3.70
2022-08-18T18:56:45.672Z,3.42
2022-08-18T18:59:35.269Z,3.90
2022-08-18T19:02:21.162Z,3.92
2022-08-18T19:05:09.821Z,3.65
2022-08-18T19:07:55.314Z,4.47
2022-08-18T19:10:31.256Z,3.47
2022-08-18T19:13:05.688Z,3.63
2022-08-18T19:15:38.118Z,3.70
2022-08-18T19:18:28.686Z,3.70
2022-08-18T19:22:01.969Z,3.70
2022-08-18T19:23:56.867Z,3.47
2022-08-18T19:26:28.839Z,3.72
2022-08-18T19:29:13.750Z,3.60
2022-08-18T19:32:07.348Z,3.55
2022-08-18T19:34:42.463Z,3.80
2022-08-18T19:37:31.547Z,4.53
2022-08-18T19:40:39.385Z,3.72
2022-08-18T19:43:17.550Z,4.22
2022-08-18T19:45:47.181Z,3.83
2022-08-18T19:48:34.831Z,3.67
2022-08-18T19:51:10.271Z,3.80
2022-08-18T19:53:44.221Z,4.28
2022-08-18T19:56:48.945Z,3.83
2022-08-18T19:59:44.079Z,4.05
2022-08-18T20:02:17.032Z,3.08
2022-08-18T20:04:57.432Z,3.45
2022-08-18T20:07:49.876Z,2.92
2022-08-18T20:10:34.491Z,3.42
2022-08-18T20:13:11.416Z,3.50
2022-08-18T20:15:57.683Z,4.13
2022-08-18T20:18:34.471Z,3.47
2022-08-18T20:21:26.340Z,3.70
2022-08-18T20:23:56.615Z,3.58
2022-08-18T20:26:37.754Z,3.70
2022-08-18T20:29:13.154Z,3.35
2022-08-18T20:31:49.248Z,3.78
2022-08-18T20:34:25.527Z,3.72
2022-08-18T20:36:53.528Z,3.88
2022-08-18T20:39:38.981Z,3.92
2022-08-18T20:42:27.443Z,4.35
2022-08-18T20:44:58.926Z,3.75
2022-08-18T20:47:31.474Z,3.88
2022-08-18T20:50:13.429Z,3.50
2022-08-18T20:53:04.101Z,3.87
2022-08-18T20:56:12.952Z,3.53
2022-08-18T20:59:08.914Z,3.53
2022-08-18T21:01:36.967Z,3.85
2022-08-18T21:04:06.123Z,4.07
2022-08-18T21:06:38.599Z,3.80
2022-08-18T21:09:05.635Z,3.50
2022-08-18T21:11:43.755Z,3.53
2022-08-18T21:14:12.973Z,3.58
2022-08-18T21:16:45.199Z,4.10
2022-08-18T21:19:27.924Z,4.05
2022-08-18T21:22:00.516Z,4.07
2022-08-18T21:27:05.740Z,3.85
2022-08-18T21:29:46.987Z,3.85
2022-08-18T21:32:20.274Z,3.72
2022-08-18T21:34:47.869Z,4.35
2022-08-18T21:37:18.193Z,4.68
2022-08-18T21:39:48.099Z,4.22
2022-08-18T21:42:21.327Z,4.50
2022-08-18T21:44:49.319Z,4.40
2022-08-18T21:47:29.746Z,4.53
2022-08-18T21:50:23.223Z,4.07
2022-08-18T21:52:54.859Z,3.95
2022-08-18T21:55:45.170Z,3.97
2022-08-18T21:58:16.738Z,3.42
2022-08-18T22:00:47.961Z,3.65
2022-08-18T22:03:25.230Z,4.22
2022-08-18T22:06:01.617Z,3.50
2022-08-18T22:08:33.289Z,3.47
2022-08-18T22:11:51.968Z,3.97
2022-08-18T22:14:54.292Z,3.70
2022-08-18T22:17:56.613Z,3.67
2022-08-18T22:20:35.231Z,3.55
2022-08-18T22:23:32.789Z,3.83
2022-08-18T22:26:09.942Z,3.90
2022-08-18T22:28:58.874Z,4.38
2022-08-18T22:31:47.917Z,3.70
2022-08-18T22:34:27.081Z,4.10
2022-08-18T22:37:00.045Z,3.60
2022-08-18T22:39:34.164Z,3.83
2022-08-18T22:42:01.505Z,3.92
2022-08-18T22:44:28.780Z,4.20
2022-08-18T22:46:55.884Z,3.95
2022-08-18T22:49:24.243Z,4.10
2022-08-18T22:51:54.289Z,4.13
2022-08-18T22:54:23.192Z,4.53
2022-08-18T22:56:53.790Z,4.45
2022-08-18T22:59:25.598Z,4.20
2022-08-18T23:01:54.709Z,4.20
2022-08-18T23:04:23.647Z,4.00
2022-08-18T23:06:53.807Z,5.25
2022-08-18T23:09:27.078Z,4.65
2022-08-18T23:11:56.357Z,4.82
2022-08-18T23:14:24.194Z,5.00
2022-08-18T23:16:51.350Z,5.57
2022-08-18T23:19:20.392Z,4.65
2022-08-18T23:21:48.949Z,4.32
2022-08-18T23:24:16.761Z,4.32
2022-08-18T23:26:43.655Z,4.80
2022-08-18T23:29:11.875Z,4.38
2022-08-18T23:31:41.111Z,4.65
2022-08-18T23:34:08.684Z,5.35
2022-08-18T23:36:38.763Z,4.80
2022-08-18T23:39:07.170Z,5.40
2022-08-18T23:41:35.663Z,5.07
2022-08-18T23:44:02.708Z,5.18
2022-08-18T23:46:30.925Z,5.30
2022-08-18T23:48:59.078Z,5.72
2022-08-18T23:51:37.000Z,5.22
2022-08-18T23:54:07.797Z,5.78
2022-08-18T23:56:35.891Z,5.22
2022-08-18T23:59:05.197Z,6.50
